Canyonlands National Park, UT

2:20 PM MST on January 25, 2015 (GMT -0700)
Canon Vista | Change Station
CLOSE
Current Station
Personal Weather Station
Location: Moab, UT
Elevation: 4183 ft
Nearby Weather Stations

Elev 4183 ft 38.56 °N, 109.53 °W | Updated 6 seconds ago

Clear
Clear
48.3 °F
Feels Like 48 °F
N
1.0
Wind Variable Wind from West
Gusts 0.0 mph

Today
High -- | Low -- °F
--% Chance of Precip.
Yesterday
High -- | Low -- °F
Precip. -- in
7:29 AM 5:31 PM
Waxing Crescent, 36% visible
Pressure 30.37 in
Visibility 10.0 miles
Clouds Clear
Windchill 48 °F
Dew Point 23 °F
Humidity 36%
Rainfall 0.00 in
Snow Depth Not available.
UV 3 out of 12
Pollen .10 out of 12
Air Quality Not available.
Flu Activity Not available.
METAR KCNY 252053Z AUTO 34005KT 10SM CLR 08/M06 A3033 RMK AO2 SLP284 T00781061 58023

More Conditions Fewer Conditions

Pressure 30.37 in
Visibility 10.0 miles
Clouds Clear
Windchill 48 °F
Dew Point 23 °F
Humidity 36%
Rainfall 0.00 in
Snow Depth Not available.
UV 3 out of 12
Pollen .10 out of 12
Air Quality Not available.
Flu Activity Not available.
METAR KCNY 252053Z AUTO 34005KT 10SM CLR 08/M06 A3033 RMK AO2 SLP284 T00781061 58023

More Conditions Fewer Conditions

10-Day Weather Forecast

Almanac

Astronomy

Jan. 25, 2015 Rise Set
Actual Time
Civil Twilight
Nautical Twilight
Astronomical Twilight
Moon
Length of Visible Light
Length of Day
Tomorrow will be .
, % of the Moon is Illuminated

Today's Extremes

State Highs State Lows

Community

WunderPhotos

Upload Photos

1,790,051 photos uploaded!

WunderBlogs® & News

Nearby

Air Quality

  Air Quality AQ Index Pollutant
Not available.

Snow Depth

Station Depth Elevation

Earthquake Activity

City Distance Mag. Time & Date
Minimum magnitude displayed is 2.5.

Coastal Water Temperatures

Place Temperature

Nearby Weather Stations